Time;durP1;ratioP1;P1;durP2;ratioP2;P2;SDS_P1;SDS_P2;PMS_P1;PMS_P2;Temp;Humidity;BMP_temperature;BMP_pressure;BME280_temperature;BME280_humidity;BME280_pressure;Samples;Min_cycle;Max_cycle;Signal;HPM_P1;HPM_P2
2019/12/13 00:00:10;;;;;;;2.31;2.09;;;;;;;19.72;40.13;97855.84;;;;-51
2019/12/13 00:03:08;;;;;;;2.30;2.10;;;;;;;19.70;40.20;97838.09;;;;-51
2019/12/13 00:06:07;;;;;;;2.30;2.10;;;;;;;19.69;40.18;97834.05;;;;-49
2019/12/13 00:09:07;;;;;;;2.11;1.93;;;;;;;19.68;40.17;97830.72;;;;-49
2019/12/13 00:12:07;;;;;;;2.13;1.93;;;;;;;19.66;40.13;97827.27;;;;-49
2019/12/13 00:15:07;;;;;;;2.38;2.18;;;;;;;19.64;40.12;97824.33;;;;-49
2019/12/13 00:18:07;;;;;;;2.22;2.02;;;;;;;19.63;40.12;97822.08;;;;-49
2019/12/13 00:21:07;;;;;;;2.36;2.09;;;;;;;19.61;40.13;97812.88;;;;-46
2019/12/13 00:24:07;;;;;;;2.23;2.03;;;;;;;19.57;40.20;97807.43;;;;-51
2019/12/13 00:27:07;;;;;;;2.30;2.10;;;;;;;19.57;40.19;97802.42;;;;-51
2019/12/13 00:30:07;;;;;;;2.39;2.05;;;;;;;19.55;40.15;97800.23;;;;-49
2019/12/13 00:33:07;;;;;;;2.17;2.00;;;;;;;19.54;40.17;97795.72;;;;-44
2019/12/13 00:36:07;;;;;;;2.07;1.87;;;;;;;19.52;40.20;97797.23;;;;-46
2019/12/13 00:39:07;;;;;;;2.21;2.01;;;;;;;19.51;40.20;97798.39;;;;-44
2019/12/13 00:42:17;;;;;;;2.19;1.91;;;;;;;19.49;40.22;97780.80;;;;-44
2019/12/13 00:45:10;;;;;;;1.91;1.75;;;;;;;19.47;40.22;97765.16;;;;-44
2019/12/13 00:48:07;;;;;;;2.23;2.03;;;;;;;19.46;40.21;97759.13;;;;-44
2019/12/13 00:51:07;;;;;;;2.35;2.01;;;;;;;19.43;40.24;97746.09;;;;-44
2019/12/13 00:54:07;;;;;;;2.03;1.83;;;;;;;19.42;40.22;97738.88;;;;-44
2019/12/13 00:57:07;;;;;;;2.55;1.94;;;;;;;19.41;40.28;97726.99;;;;-44
2019/12/13 01:00:07;;;;;;;1.88;1.75;;;;;;;19.39;40.26;97718.05;;;;-44
2019/12/13 01:03:25;;;;;;;2.23;1.83;;;;;;;19.37;40.27;97706.26;;;;-44
2019/12/13 01:09:08;;;;;;;2.11;1.91;;;;;;;19.35;40.32;97688.37;;;;-44
2019/12/13 01:12:07;;;;;;;2.18;1.93;;;;;;;19.33;40.32;97684.18;;;;-44
2019/12/13 01:15:07;;;;;;;2.09;1.88;;;;;;;19.32;40.37;97676.32;;;;-44
2019/12/13 01:18:07;;;;;;;2.11;1.87;;;;;;;19.30;40.40;97662.09;;;;-44
2019/12/13 01:21:07;;;;;;;2.09;1.89;;;;;;;19.28;40.37;97651.63;;;;-44
2019/12/13 01:24:07;;;;;;;2.05;1.85;;;;;;;19.27;40.41;97646.13;;;;-44
2019/12/13 01:27:07;;;;;;;2.19;1.80;;;;;;;19.26;40.39;97643.11;;;;-45
2019/12/13 01:30:07;;;;;;;2.02;1.81;;;;;;;19.26;40.40;97630.31;;;;-44
2019/12/13 01:33:07;;;;;;;2.06;1.86;;;;;;;19.24;40.39;97620.19;;;;-44
2019/12/13 01:36:07;;;;;;;2.07;1.87;;;;;;;19.24;40.42;97610.90;;;;-46
2019/12/13 01:39:14;;;;;;;1.81;1.70;;;;;;;19.21;40.40;97601.52;;;;-45
2019/12/13 01:42:10;;;;;;;1.87;1.71;;;;;;;19.20;40.45;97598.59;;;;-49
2019/12/13 01:45:27;;;;;;;1.92;1.76;;;;;;;19.20;40.43;97592.66;;;;-51
2019/12/13 01:48:19;;;;;;;1.93;1.82;;;;;;;19.18;40.44;97569.77;;;;-51
2019/12/13 01:51:07;;;;;;;1.90;1.72;;;;;;;19.17;40.54;97552.54;;;;-52
2019/12/13 01:54:07;;;;;;;1.97;1.79;;;;;;;19.16;40.51;97544.83;;;;-52
2019/12/13 01:57:07;;;;;;;2.65;1.82;;;;;;;19.15;40.47;97548.02;;;;-51
2019/12/13 02:00:07;;;;;;;1.97;1.80;;;;;;;19.13;40.54;97547.47;;;;-51
2019/12/13 02:03:07;;;;;;;1.85;1.75;;;;;;;19.12;40.49;97543.72;;;;-51
2019/12/13 02:06:07;;;;;;;1.85;1.75;;;;;;;19.11;40.46;97535.95;;;;-51
2019/12/13 02:09:07;;;;;;;1.79;1.69;;;;;;;19.10;40.49;97535.86;;;;-51
2019/12/13 02:12:07;;;;;;;1.79;1.69;;;;;;;19.08;40.48;97533.11;;;;-51
2019/12/13 02:15:07;;;;;;;1.71;1.61;;;;;;;19.07;40.48;97517.20;;;;-51
2019/12/13 02:18:08;;;;;;;1.70;1.60;;;;;;;19.06;40.52;97512.11;;;;-51
2019/12/13 02:21:07;;;;;;;2.00;1.71;;;;;;;19.05;40.53;97502.49;;;;-52
2019/12/13 02:24:07;;;;;;;1.84;1.74;;;;;;;19.04;40.53;97494.72;;;;-49
2019/12/13 02:27:07;;;;;;;1.95;1.70;;;;;;;19.02;40.59;97484.52;;;;-49
2019/12/13 02:30:07;;;;;;;1.72;1.62;;;;;;;19.01;40.54;97473.92;;;;-52
2019/12/13 02:33:07;;;;;;;1.90;1.70;;;;;;;19.00;40.51;97460.45;;;;-52
2019/12/13 02:36:07;;;;;;;1.73;1.63;;;;;;;19.00;40.55;97455.78;;;;-46
2019/12/13 02:39:07;;;;;;;1.76;1.66;;;;;;;18.99;40.54;97448.67;;;;-44
2019/12/13 02:42:07;;;;;;;1.92;1.75;;;;;;;18.97;40.56;97442.89;;;;-44
2019/12/13 02:45:07;;;;;;;1.71;1.57;;;;;;;18.96;40.60;97427.18;;;;-52
2019/12/13 02:48:07;;;;;;;1.78;1.63;;;;;;;18.96;40.58;97422.83;;;;-44
2019/12/13 02:51:07;;;;;;;1.70;1.60;;;;;;;18.96;40.52;97419.67;;;;-44
2019/12/13 02:54:07;;;;;;;1.71;1.61;;;;;;;18.94;40.59;97405.48;;;;-46
2019/12/13 02:57:07;;;;;;;1.64;1.54;;;;;;;18.93;40.56;97399.85;;;;-45
2019/12/13 03:00:07;;;;;;;1.70;1.60;;;;;;;18.93;40.60;97393.42;;;;-49
2019/12/13 03:03:07;;;;;;;1.87;1.73;;;;;;;18.92;40.62;97382.56;;;;-49
2019/12/13 03:06:07;;;;;;;1.73;1.63;;;;;;;18.90;40.60;97379.80;;;;-49
2019/12/13 03:09:07;;;;;;;1.61;1.51;;;;;;;18.89;40.62;97375.28;;;;-49
2019/12/13 03:12:07;;;;;;;1.63;1.53;;;;;;;18.88;40.59;97364.36;;;;-49
2019/12/13 03:15:08;;;;;;;1.65;1.55;;;;;;;18.87;40.65;97351.92;;;;-49
2019/12/13 03:18:22;;;;;;;1.71;1.61;;;;;;;18.87;40.65;97346.05;;;;-49
2019/12/13 03:21:23;;;;;;;1.67;1.53;;;;;;;18.85;40.61;97331.52;;;;-49
2019/12/13 03:24:07;;;;;;;1.61;1.51;;;;;;;18.85;40.62;97328.59;;;;-49
2019/12/13 03:27:07;;;;;;;1.67;1.57;;;;;;;18.84;40.62;97314.81;;;;-49
2019/12/13 03:30:07;;;;;;;1.67;1.57;;;;;;;18.82;40.66;97303.61;;;;-49
2019/12/13 03:33:07;;;;;;;1.60;1.50;;;;;;;18.82;40.66;97292.58;;;;-49
2019/12/13 03:36:07;;;;;;;1.58;1.48;;;;;;;18.81;40.67;97290.14;;;;-49
2019/12/13 03:39:07;;;;;;;1.69;1.59;;;;;;;18.80;40.67;97277.63;;;;-49
2019/12/13 03:42:07;;;;;;;1.57;1.47;;;;;;;18.79;40.70;97275.70;;;;-48
2019/12/13 03:45:07;;;;;;;1.66;1.56;;;;;;;18.78;40.67;97267.95;;;;-49
2019/12/13 03:48:07;;;;;;;1.73;1.63;;;;;;;18.77;40.66;97252.92;;;;-49
2019/12/13 03:51:07;;;;;;;1.75;1.65;;;;;;;18.75;40.69;97246.14;;;;-49
2019/12/13 03:54:07;;;;;;;1.70;1.60;;;;;;;18.74;40.68;97225.59;;;;-49
2019/12/13 03:57:07;;;;;;;1.63;1.53;;;;;;;18.74;40.66;97221.90;;;;-48
2019/12/13 04:00:08;;;;;;;1.72;1.62;;;;;;;18.73;40.69;97215.83;;;;-49
2019/12/13 04:03:07;;;;;;;1.57;1.47;;;;;;;18.72;40.72;97205.36;;;;-49
2019/12/13 04:06:07;;;;;;;1.52;1.42;;;;;;;18.72;40.72;97195.34;;;;-49
2019/12/13 04:09:07;;;;;;;1.62;1.52;;;;;;;18.71;40.68;97193.53;;;;-49
2019/12/13 04:12:07;;;;;;;1.51;1.41;;;;;;;18.70;40.72;97182.25;;;;-49
2019/12/13 04:15:07;;;;;;;1.55;1.45;;;;;;;18.69;40.73;97174.06;;;;-49
2019/12/13 04:18:07;;;;;;;1.70;1.60;;;;;;;18.69;40.70;97158.50;;;;-49
2019/12/13 04:21:07;;;;;;;1.61;1.51;;;;;;;18.68;40.69;97146.99;;;;-49
2019/12/13 04:24:07;;;;;;;1.61;1.51;;;;;;;18.67;40.75;97135.73;;;;-49
2019/12/13 04:27:07;;;;;;;1.49;1.39;;;;;;;18.67;40.67;97133.63;;;;-49
2019/12/13 04:30:07;;;;;;;1.73;1.44;;;;;;;18.66;40.76;97114.67;;;;-49
2019/12/13 04:33:07;;;;;;;1.70;1.60;;;;;;;18.65;40.70;97106.55;;;;-49
2019/12/13 04:36:07;;;;;;;1.53;1.43;;;;;;;18.64;40.69;97107.73;;;;-49
2019/12/13 04:39:07;;;;;;;1.50;1.40;;;;;;;18.64;40.66;97103.83;;;;-49
2019/12/13 04:42:07;;;;;;;1.43;1.33;;;;;;;18.63;40.71;97081.36;;;;-49
2019/12/13 04:45:07;;;;;;;1.54;1.44;;;;;;;18.64;40.71;97082.77;;;;-49
2019/12/13 04:48:07;;;;;;;1.61;1.51;;;;;;;18.64;40.76;97077.92;;;;-49
2019/12/13 04:51:07;;;;;;;1.50;1.40;;;;;;;18.65;40.75;97066.11;;;;-48
2019/12/13 04:54:07;;;;;;;1.52;1.42;;;;;;;18.67;40.78;97053.51;;;;-49
2019/12/13 04:57:07;;;;;;;1.59;1.42;;;;;;;18.68;40.70;97039.27;;;;-49
2019/12/13 05:00:07;;;;;;;1.50;1.40;;;;;;;18.70;40.71;97027.47;;;;-49
2019/12/13 05:03:10;;;;;;;1.50;1.40;;;;;;;18.73;40.74;97020.67;;;;-49
2019/12/13 05:06:50;;;;;;;1.45;1.35;;;;;;;18.74;40.84;97020.84;;;;-49
2019/12/13 05:09:08;;;;;;;1.41;1.31;;;;;;;18.76;40.99;97012.97;;;;-49
2019/12/13 05:12:07;;;;;;;1.41;1.31;;;;;;;18.79;40.97;97002.19;;;;-52
2019/12/13 05:15:07;;;;;;;1.55;1.45;;;;;;;18.81;41.04;96991.20;;;;-51
2019/12/13 05:18:07;;;;;;;1.41;1.31;;;;;;;18.84;41.05;96980.16;;;;-52
2019/12/13 05:21:07;;;;;;;1.40;1.30;;;;;;;18.88;41.03;96966.98;;;;-51
2019/12/13 05:24:07;;;;;;;1.43;1.33;;;;;;;18.90;41.02;96957.69;;;;-51
2019/12/13 05:27:07;;;;;;;1.40;1.30;;;;;;;18.94;41.00;96944.42;;;;-44
2019/12/13 05:30:07;;;;;;;1.44;1.34;;;;;;;18.98;40.94;96931.27;;;;-44
2019/12/13 05:33:07;;;;;;;1.49;1.39;;;;;;;19.01;40.95;96930.55;;;;-46
2019/12/13 05:36:07;;;;;;;1.37;1.27;;;;;;;19.05;40.98;96930.94;;;;-44
2019/12/13 05:39:07;;;;;;;1.46;1.36;;;;;;;19.08;41.03;96921.87;;;;-44
2019/12/13 05:42:07;;;;;;;1.40;1.30;;;;;;;19.12;41.00;96918.83;;;;-44
2019/12/13 05:45:07;;;;;;;1.40;1.30;;;;;;;19.16;41.07;96914.30;;;;-44
2019/12/13 05:48:07;;;;;;;1.31;1.21;;;;;;;19.18;41.04;96905.25;;;;-44
2019/12/13 05:51:07;;;;;;;1.49;1.39;;;;;;;19.23;41.08;96902.17;;;;-49
2019/12/13 05:54:07;;;;;;;1.42;1.32;;;;;;;19.25;41.10;96891.67;;;;-45
2019/12/13 05:57:07;;;;;;;1.40;1.30;;;;;;;19.28;41.10;96885.11;;;;-44
2019/12/13 06:00:07;;;;;;;1.46;1.36;;;;;;;19.31;41.08;96875.46;;;;-44
2019/12/13 06:03:15;;;;;;;1.35;1.25;;;;;;;19.33;41.14;96871.59;;;;-51
2019/12/13 06:06:07;;;;;;;1.30;1.20;;;;;;;19.37;41.09;96873.37;;;;-51
2019/12/13 06:09:07;;;;;;;1.32;1.22;;;;;;;19.40;41.05;96859.70;;;;-45
2019/12/13 06:12:07;;;;;;;1.36;1.26;;;;;;;19.43;41.09;96859.75;;;;-44
2019/12/13 06:15:07;;;;;;;1.37;1.27;;;;;;;19.46;41.09;96844.64;;;;-44
2019/12/13 06:18:07;;;;;;;1.37;1.27;;;;;;;19.48;41.13;96846.05;;;;-44
2019/12/13 06:21:07;;;;;;;1.35;1.25;;;;;;;19.50;41.11;96831.63;;;;-44
2019/12/13 06:24:07;;;;;;;1.40;1.30;;;;;;;19.52;41.09;96824.46;;;;-44
2019/12/13 06:27:07;;;;;;;1.53;1.31;;;;;;;19.55;41.07;96812.54;;;;-50
2019/12/13 06:30:07;;;;;;;1.42;1.32;;;;;;;19.57;41.09;96805.48;;;;-50
2019/12/13 06:33:07;;;;;;;1.31;1.21;;;;;;;19.60;41.06;96804.19;;;;-49
2019/12/13 06:36:07;;;;;;;1.40;1.30;;;;;;;19.62;41.00;96790.69;;;;-49
2019/12/13 06:39:07;;;;;;;1.22;1.20;;;;;;;19.64;40.96;96772.67;;;;-50
2019/12/13 06:42:07;;;;;;;1.30;1.20;;;;;;;19.67;40.93;96761.91;;;;-49
2019/12/13 06:45:07;;;;;;;1.15;1.15;;;;;;;19.69;40.93;96756.77;;;;-52
2019/12/13 06:48:07;;;;;;;1.36;1.26;;;;;;;19.71;40.96;96752.21;;;;-51
2019/12/13 06:51:07;;;;;;;1.40;1.30;;;;;;;19.73;40.93;96750.34;;;;-52
2019/12/13 06:54:07;;;;;;;1.41;1.31;;;;;;;19.74;40.91;96744.62;;;;-51
2019/12/13 06:57:07;;;;;;;1.43;1.25;;;;;;;19.77;40.91;96745.17;;;;-51
2019/12/13 07:00:07;;;;;;;1.83;1.20;;;;;;;19.78;40.94;96736.69;;;;-51
2019/12/13 07:03:07;;;;;;;1.40;1.30;;;;;;;19.80;40.91;96723.17;;;;-49
2019/12/13 07:06:29;;;;;;;1.38;1.28;;;;;;;19.81;40.93;96719.98;;;;-49
2019/12/13 07:09:07;;;;;;;1.39;1.25;;;;;;;19.83;40.91;96721.73;;;;-50
2019/12/13 07:12:13;;;;;;;1.37;1.27;;;;;;;19.84;40.85;96715.66;;;;-49
2019/12/13 07:15:07;;;;;;;1.30;1.20;;;;;;;19.86;40.84;96715.96;;;;-49
2019/12/13 07:18:07;;;;;;;1.30;1.20;;;;;;;19.87;40.83;96717.22;;;;-50
2019/12/13 07:21:07;;;;;;;1.26;1.16;;;;;;;19.87;40.82;96708.83;;;;-49
2019/12/13 07:24:07;;;;;;;1.45;1.20;;;;;;;19.89;40.86;96701.11;;;;-49
2019/12/13 07:27:07;;;;;;;1.36;1.26;;;;;;;19.90;40.76;96700.07;;;;-50
2019/12/13 07:30:07;;;;;;;1.25;1.15;;;;;;;19.92;40.76;96692.16;;;;-50
2019/12/13 07:33:07;;;;;;;1.12;1.12;;;;;;;19.92;40.73;96692.09;;;;-49
2019/12/13 07:36:07;;;;;;;1.29;1.20;;;;;;;19.94;40.70;96692.30;;;;-44
2019/12/13 07:39:07;;;;;;;1.29;1.19;;;;;;;19.95;40.75;96692.53;;;;-44
2019/12/13 07:42:07;;;;;;;1.15;1.15;;;;;;;19.96;40.70;96690.84;;;;-51
2019/12/13 07:45:07;;;;;;;1.95;1.11;;;;;;;19.96;40.76;96688.66;;;;-46
2019/12/13 07:48:07;;;;;;;1.29;1.19;;;;;;;19.97;40.74;96682.45;;;;-45
2019/12/13 07:51:07;;;;;;;1.29;1.19;;;;;;;19.99;40.62;96680.27;;;;-46
2019/12/13 07:54:07;;;;;;;1.33;1.23;;;;;;;20.00;40.70;96683.17;;;;-46
2019/12/13 07:57:07;;;;;;;1.28;1.18;;;;;;;20.02;40.64;96678.03;;;;-46
2019/12/13 08:00:07;;;;;;;1.24;1.14;;;;;;;20.02;40.73;96684.15;;;;-46
2019/12/13 08:03:07;;;;;;;1.03;1.03;;;;;;;20.03;40.66;96681.67;;;;-51
2019/12/13 08:06:07;;;;;;;1.43;1.21;;;;;;;20.04;40.66;96675.58;;;;-44
2019/12/13 08:09:07;;;;;;;1.94;1.23;;;;;;;20.05;40.68;96674.44;;;;-44
2019/12/13 08:12:07;;;;;;;1.53;1.29;;;;;;;20.07;40.72;96675.68;;;;-50
2019/12/13 08:15:07;;;;;;;1.81;1.20;;;;;;;20.08;40.70;96672.31;;;;-44
2019/12/13 08:18:07;;;;;;;1.10;1.10;;;;;;;20.09;40.69;96664.52;;;;-51
2019/12/13 08:21:07;;;;;;;2.57;1.37;;;;;;;20.09;40.69;96659.82;;;;-44
2019/12/13 08:24:07;;;;;;;1.40;1.30;;;;;;;20.10;40.68;96665.72;;;;-51
2019/12/13 08:27:07;;;;;;;1.40;1.30;;;;;;;20.12;40.68;96669.89;;;;-51
2019/12/13 08:30:07;;;;;;;1.37;1.27;;;;;;;20.12;40.66;96670.54;;;;-52
2019/12/13 08:33:07;;;;;;;1.69;1.30;;;;;;;20.13;40.53;96672.22;;;;-52
2019/12/13 08:36:07;;;;;;;1.88;1.27;;;;;;;20.12;40.42;96667.95;;;;-51
2019/12/13 08:39:07;;;;;;;1.39;1.15;;;;;;;20.13;40.41;96670.94;;;;-51
2019/12/13 08:42:07;;;;;;;1.30;1.20;;;;;;;20.14;40.42;96674.47;;;;-51
2019/12/13 08:45:07;;;;;;;1.25;1.15;;;;;;;20.15;40.40;96679.22;;;;-52
2019/12/13 08:48:07;;;;;;;1.61;1.20;;;;;;;20.15;40.44;96679.98;;;;-51
2019/12/13 08:51:07;;;;;;;1.30;1.20;;;;;;;20.15;40.48;96686.31;;;;-52
2019/12/13 08:54:07;;;;;;;3.05;1.39;;;;;;;20.16;40.36;96693.66;;;;-51
2019/12/13 08:57:07;;;;;;;1.30;1.20;;;;;;;20.16;40.48;96696.02;;;;-51
2019/12/13 09:00:07;;;;;;;1.41;1.28;;;;;;;20.17;40.39;96704.30;;;;-51
2019/12/13 09:03:07;;;;;;;1.29;1.19;;;;;;;20.17;40.43;96712.56;;;;-51
2019/12/13 09:06:07;;;;;;;1.75;1.20;;;;;;;20.18;40.41;96718.02;;;;-51
2019/12/13 09:09:07;;;;;;;1.40;1.30;;;;;;;20.19;40.36;96725.09;;;;-50
2019/12/13 09:12:07;;;;;;;1.85;1.20;;;;;;;20.17;40.43;96716.93;;;;-49
2019/12/13 09:15:07;;;;;;;1.28;1.18;;;;;;;20.19;40.45;96719.98;;;;-50
2019/12/13 09:18:07;;;;;;;1.36;1.26;;;;;;;20.19;40.42;96716.30;;;;-49
2019/12/13 09:21:07;;;;;;;1.23;1.13;;;;;;;20.20;40.41;96720.14;;;;-49
2019/12/13 09:24:07;;;;;;;1.44;1.20;;;;;;;20.21;40.42;96724.64;;;;-49
2019/12/13 09:27:07;;;;;;;1.20;1.18;;;;;;;20.22;40.49;96722.02;;;;-49
2019/12/13 09:30:07;;;;;;;1.43;1.30;;;;;;;20.24;40.43;96724.25;;;;-49
2019/12/13 09:33:07;;;;;;;1.13;1.13;;;;;;;20.24;40.48;96725.00;;;;-49
2019/12/13 09:36:07;;;;;;;1.29;1.19;;;;;;;20.26;40.37;96718.52;;;;-49
2019/12/13 09:39:07;;;;;;;1.30;1.20;;;;;;;20.25;40.47;96718.63;;;;-49
2019/12/13 09:42:07;;;;;;;2.03;1.33;;;;;;;20.25;40.18;96717.63;;;;-50
2019/12/13 09:45:17;;;;;;;5.23;1.50;;;;;;;20.23;39.17;96722.18;;;;-50
2019/12/13 09:48:07;;;;;;;2.73;1.57;;;;;;;20.22;38.70;96721.27;;;;-53
2019/12/13 09:51:07;;;;;;;2.54;1.44;;;;;;;20.28;39.97;96724.77;;;;-47
2019/12/13 09:54:07;;;;;;;5.23;1.50;;;;;;;20.31;40.33;96729.81;;;;-48
2019/12/13 09:57:07;;;;;;;3.57;1.30;;;;;;;20.35;40.70;96736.62;;;;-51
2019/12/13 10:00:07;;;;;;;2.98;1.26;;;;;;;20.37;40.80;96742.08;;;;-50
2019/12/13 10:03:07;;;;;;;1.80;1.25;;;;;;;20.41;40.91;96747.45;;;;-50
2019/12/13 10:06:07;;;;;;;2.69;1.24;;;;;;;20.45;41.07;96751.76;;;;-52
2019/12/13 10:09:07;;;;;;;3.60;1.42;;;;;;;20.48;40.81;96752.34;;;;-51
2019/12/13 10:12:07;;;;;;;4.29;1.30;;;;;;;20.48;40.65;96754.78;;;;-49
2019/12/13 10:15:07;;;;;;;3.41;1.50;;;;;;;20.51;40.40;96758.66;;;;-51
2019/12/13 10:18:07;;;;;;;4.00;1.35;;;;;;;20.50;40.39;96766.05;;;;-51
2019/12/13 10:21:07;;;;;;;2.91;1.35;;;;;;;20.50;40.35;96767.55;;;;-51
2019/12/13 10:24:07;;;;;;;2.67;1.31;;;;;;;20.49;40.35;96771.19;;;;-51
2019/12/13 10:27:07;;;;;;;3.85;1.23;;;;;;;20.49;40.40;96772.53;;;;-51
2019/12/13 10:30:07;;;;;;;3.73;1.38;;;;;;;20.51;42.43;96780.03;;;;-58
2019/12/13 10:33:07;;;;;;;2.64;1.41;;;;;;;20.55;40.70;96791.18;;;;-53
2019/12/13 10:36:07;;;;;;;2.30;1.33;;;;;;;20.57;40.67;96793.83;;;;-51
2019/12/13 10:39:07;;;;;;;1.55;1.20;;;;;;;20.58;40.71;96798.75;;;;-51
2019/12/13 10:42:07;;;;;;;3.95;1.48;;;;;;;20.61;40.53;96801.71;;;;-51
2019/12/13 10:45:07;;;;;;;2.42;1.30;;;;;;;20.63;40.73;96811.66;;;;-51
2019/12/13 10:48:07;;;;;;;5.99;1.31;;;;;;;20.65;40.23;96816.39;;;;-51
2019/12/13 10:51:07;;;;;;;4.15;1.51;;;;;;;20.66;40.72;96818.86;;;;-51
2019/12/13 10:54:07;;;;;;;1.90;1.31;;;;;;;20.69;41.00;96833.14;;;;-49
2019/12/13 10:57:07;;;;;;;3.61;1.20;;;;;;;20.71;41.03;96836.29;;;;-48
2019/12/13 11:00:07;;;;;;;2.25;1.27;;;;;;;20.72;40.97;96844.98;;;;-51
2019/12/13 11:03:07;;;;;;;6.46;1.53;;;;;;;20.76;41.56;96849.61;;;;-51
2019/12/13 11:06:07;;;;;;;3.76;1.40;;;;;;;20.84;42.07;96863.58;;;;-52
2019/12/13 11:09:07;;;;;;;5.59;1.37;;;;;;;20.88;43.15;96868.20;;;;-50
2019/12/13 11:12:07;;;;;;;3.84;1.32;;;;;;;20.91;43.38;96868.81;;;;-56
2019/12/13 11:15:07;;;;;;;5.28;1.30;;;;;;;20.93;43.02;96879.41;;;;-49
2019/12/13 11:18:07;;;;;;;2.69;1.23;;;;;;;20.93;43.54;96881.41;;;;-52
2019/12/13 11:21:07;;;;;;;2.95;1.24;;;;;;;20.98;44.09;96878.22;;;;-52
2019/12/13 11:24:07;;;;;;;1.30;1.20;;;;;;;20.97;43.72;96887.80;;;;-52
2019/12/13 11:27:07;;;;;;;3.00;1.29;;;;;;;21.00;43.16;96888.91;;;;-54
2019/12/13 11:30:07;;;;;;;1.62;1.19;;;;;;;21.03;44.16;96896.49;;;;-57
2019/12/13 11:33:07;;;;;;;3.67;1.35;;;;;;;21.03;43.15;96901.36;;;;-57
2019/12/13 11:36:07;;;;;;;2.31;1.13;;;;;;;21.05;43.45;96905.51;;;;-52
2019/12/13 11:39:07;;;;;;;2.44;1.20;;;;;;;21.06;43.43;96905.66;;;;-53
2019/12/13 11:42:07;;;;;;;3.67;1.31;;;;;;;21.09;43.05;96904.68;;;;-51
2019/12/13 11:45:07;;;;;;;2.57;1.20;;;;;;;21.04;41.89;96910.89;;;;-52
2019/12/13 11:48:07;;;;;;;2.45;1.39;;;;;;;21.02;41.88;96919.65;;;;-51
2019/12/13 11:51:07;;;;;;;4.55;1.30;;;;;;;20.99;41.81;96924.99;;;;-54
2019/12/13 11:54:07;;;;;;;3.54;1.53;;;;;;;21.00;42.23;96920.78;;;;-53
2019/12/13 11:57:07;;;;;;;7.40;1.55;;;;;;;20.99;40.91;96930.45;;;;-50
2019/12/13 12:00:25;;;;;;;6.34;1.49;;;;;;;21.00;41.14;96935.73;;;;-52
2019/12/13 12:03:07;;;;;;;2.60;1.19;;;;;;;21.01;42.01;96940.05;;;;-51
2019/12/13 12:06:07;;;;;;;5.86;1.30;;;;;;;21.03;42.03;96943.70;;;;-52
2019/12/13 12:09:08;;;;;;;4.57;1.18;;;;;;;21.03;42.13;96950.11;;;;-52
2019/12/13 12:12:07;;;;;;;3.27;1.32;;;;;;;21.03;41.67;96956.88;;;;-52
2019/12/13 12:15:07;;;;;;;2.13;1.29;;;;;;;21.04;41.81;96968.34;;;;-51
2019/12/13 12:18:07;;;;;;;3.54;1.29;;;;;;;21.05;41.40;96976.63;;;;-52
2019/12/13 12:21:07;;;;;;;3.13;1.30;;;;;;;21.08;41.99;96978.50;;;;-52
2019/12/13 12:24:22;;;;;;;3.18;1.35;;;;;;;21.04;41.31;96981.19;;;;-52
2019/12/13 12:27:10;;;;;;;3.27;1.33;;;;;;;21.04;41.38;96989.81;;;;-52
2019/12/13 12:30:08;;;;;;;2.77;1.19;;;;;;;21.02;41.19;96993.45;;;;-52
2019/12/13 12:33:07;;;;;;;2.47;1.30;;;;;;;21.00;41.10;96997.68;;;;-53
2019/12/13 12:36:07;;;;;;;1.71;1.27;;;;;;;20.98;41.02;97008.96;;;;-52
2019/12/13 12:39:07;;;;;;;2.43;1.29;;;;;;;20.98;40.97;97008.45;;;;-52
2019/12/13 12:42:07;;;;;;;2.35;1.43;;;;;;;20.98;40.91;97012.73;;;;-52
2019/12/13 12:45:07;;;;;;;2.29;1.21;;;;;;;21.00;41.11;97014.79;;;;-50
2019/12/13 12:48:07;;;;;;;2.98;1.32;;;;;;;21.01;41.03;97020.98;;;;-52
2019/12/13 12:51:07;;;;;;;3.43;1.37;;;;;;;20.97;40.35;97017.53;;;;-51
2019/12/13 12:54:07;;;;;;;3.75;1.48;;;;;;;20.96;40.22;97023.25;;;;-52
2019/12/13 12:57:07;;;;;;;1.79;1.34;;;;;;;20.96;40.48;97034.31;;;;-52
2019/12/13 13:00:07;;;;;;;3.75;1.44;;;;;;;20.95;40.62;97028.23;;;;-51
2019/12/13 13:03:07;;;;;;;1.48;1.17;;;;;;;20.94;40.62;97035.72;;;;-52
2019/12/13 13:06:07;;;;;;;1.39;1.20;;;;;;;20.94;40.65;97042.57;;;;-51
2019/12/13 13:09:07;;;;;;;2.14;1.23;;;;;;;20.95;40.67;97047.08;;;;-52
2019/12/13 13:12:07;;;;;;;1.89;1.19;;;;;;;20.93;40.65;97048.45;;;;-51
2019/12/13 13:15:07;;;;;;;2.01;1.10;;;;;;;20.94;40.63;97061.46;;;;-52
2019/12/13 13:18:07;;;;;;;1.67;1.33;;;;;;;20.94;40.71;97058.44;;;;-52
2019/12/13 13:21:07;;;;;;;1.67;1.15;;;;;;;20.93;40.67;97062.29;;;;-52
2019/12/13 13:24:07;;;;;;;3.81;1.37;;;;;;;20.93;40.67;97067.52;;;;-51
2019/12/13 13:27:07;;;;;;;1.57;1.30;;;;;;;20.93;40.69;97078.56;;;;-49
2019/12/13 13:30:07;;;;;;;2.21;1.30;;;;;;;20.93;40.68;97070.20;;;;-50
2019/12/13 13:33:07;;;;;;;2.23;1.16;;;;;;;20.93;40.65;97082.08;;;;-49
2019/12/13 13:36:07;;;;;;;1.30;1.20;;;;;;;20.93;40.70;97087.64;;;;-49
2019/12/13 13:39:07;;;;;;;1.81;1.20;;;;;;;20.94;40.61;97097.35;;;;-49
2019/12/13 13:42:07;;;;;;;3.03;1.26;;;;;;;20.94;40.68;97103.48;;;;-49
2019/12/13 13:45:07;;;;;;;1.53;1.19;;;;;;;20.93;40.65;97107.69;;;;-49
2019/12/13 13:48:07;;;;;;;1.57;1.11;;;;;;;20.93;40.72;97112.86;;;;-49
2019/12/13 13:51:07;;;;;;;1.88;1.31;;;;;;;20.93;40.66;97122.42;;;;-52
2019/12/13 13:54:07;;;;;;;1.70;1.20;;;;;;;20.97;40.91;97122.28;;;;-57
2019/12/13 13:57:07;;;;;;;1.77;1.20;;;;;;;20.98;40.91;97121.26;;;;-51
2019/12/13 14:00:07;;;;;;;2.17;1.38;;;;;;;21.01;40.94;97126.44;;;;-48
2019/12/13 14:03:07;;;;;;;1.50;1.17;;;;;;;21.00;40.70;97133.80;;;;-50
2019/12/13 14:06:07;;;;;;;4.83;1.49;;;;;;;21.03;41.28;97131.16;;;;-46
2019/12/13 14:09:07;;;;;;;1.71;1.20;;;;;;;21.06;41.85;97144.79;;;;-48
2019/12/13 14:12:07;;;;;;;1.53;1.17;;;;;;;21.09;41.42;97153.05;;;;-52
2019/12/13 14:15:07;;;;;;;5.13;1.07;;;;;;;21.13;41.82;97156.15;;;;-49
2019/12/13 14:18:07;;;;;;;1.37;1.23;;;;;;;21.19;41.44;97162.18;;;;-47
2019/12/13 14:21:07;;;;;;;4.31;1.39;;;;;;;21.17;41.38;97166.33;;;;-52
2019/12/13 14:24:07;;;;;;;1.75;1.16;;;;;;;21.18;41.15;97174.97;;;;-47
2019/12/13 14:27:07;;;;;;;1.89;1.19;;;;;;;21.17;41.22;97177.01;;;;-51
2019/12/13 14:30:07;;;;;;;2.16;1.17;;;;;;;21.17;41.07;97177.56;;;;-51
2019/12/13 14:33:21;;;;;;;14.73;2.05;;;;;;;21.19;41.64;97179.47;;;;-47
2019/12/13 14:36:07;;;;;;;3.11;1.10;;;;;;;21.22;41.52;97181.86;;;;-50
2019/12/13 14:39:07;;;;;;;6.22;1.33;;;;;;;21.23;41.36;97191.27;;;;-57
2019/12/13 14:42:07;;;;;;;3.58;1.27;;;;;;;21.24;41.60;97191.64;;;;-55
2019/12/13 14:45:07;;;;;;;4.15;1.45;;;;;;;21.21;41.08;97200.83;;;;-54
2019/12/13 14:48:07;;;;;;;9.09;1.33;;;;;;;21.19;41.15;97199.20;;;;-54
2019/12/13 14:51:07;;;;;;;4.91;1.57;;;;;;;21.18;40.80;97206.34;;;;-53
2019/12/13 14:54:07;;;;;;;2.07;1.20;;;;;;;21.16;40.79;97216.70;;;;-52
2019/12/13 14:57:07;;;;;;;3.27;1.27;;;;;;;21.15;40.74;97222.66;;;;-52
2019/12/13 15:00:07;;;;;;;4.72;1.31;;;;;;;21.16;40.59;97226.69;;;;-53
2019/12/13 15:03:07;;;;;;;2.79;1.18;;;;;;;21.13;40.67;97226.64;;;;-53
2019/12/13 15:06:07;;;;;;;7.39;1.59;;;;;;;21.14;40.89;97229.39;;;;-54
2019/12/13 15:09:07;;;;;;;1.97;1.30;;;;;;;21.13;40.48;97232.42;;;;-52
2019/12/13 15:12:07;;;;;;;2.08;1.34;;;;;;;21.13;40.53;97234.95;;;;-52
2019/12/13 15:15:07;;;;;;;2.95;1.61;;;;;;;21.12;40.55;97240.50;;;;-52
2019/12/13 15:18:07;;;;;;;7.25;1.59;;;;;;;21.12;40.60;97239.48;;;;-53
2019/12/13 15:21:07;;;;;;;2.82;1.31;;;;;;;21.11;40.66;97244.70;;;;-52
2019/12/13 15:24:07;;;;;;;2.35;1.41;;;;;;;21.10;40.67;97253.78;;;;-52
2019/12/13 15:27:07;;;;;;;4.25;1.27;;;;;;;21.11;40.74;97257.28;;;;-52
2019/12/13 15:30:07;;;;;;;4.74;1.44;;;;;;;21.11;40.62;97264.23;;;;-52
2019/12/13 15:33:07;;;;;;;2.69;1.40;;;;;;;21.11;40.69;97265.09;;;;-52
2019/12/13 15:36:07;;;;;;;2.41;1.30;;;;;;;21.11;40.67;97265.09;;;;-52
2019/12/13 15:39:07;;;;;;;2.56;1.35;;;;;;;21.10;40.68;97270.73;;;;-49
2019/12/13 15:42:07;;;;;;;1.75;1.26;;;;;;;21.10;40.73;97276.94;;;;-49
2019/12/13 15:45:07;;;;;;;1.92;1.34;;;;;;;21.10;40.74;97273.66;;;;-49
2019/12/13 15:48:07;;;;;;;1.95;1.27;;;;;;;21.09;40.75;97276.87;;;;-49
2019/12/13 15:51:07;;;;;;;2.43;1.31;;;;;;;21.09;40.71;97278.63;;;;-49
2019/12/13 15:54:07;;;;;;;1.94;1.20;;;;;;;21.09;40.75;97294.90;;;;-49
2019/12/13 15:57:07;;;;;;;1.57;1.20;;;;;;;21.09;40.73;97295.16;;;;-49
2019/12/13 16:00:07;;;;;;;2.35;1.18;;;;;;;21.10;40.76;97299.41;;;;-49
2019/12/13 16:03:07;;;;;;;2.12;1.19;;;;;;;21.10;40.70;97305.61;;;;-49
2019/12/13 16:06:07;;;;;;;1.73;1.33;;;;;;;21.09;40.74;97309.66;;;;-49
2019/12/13 16:09:07;;;;;;;2.05;1.21;;;;;;;21.09;40.73;97325.19;;;;-49
2019/12/13 16:12:07;;;;;;;2.23;1.30;;;;;;;21.09;40.70;97329.21;;;;-49
2019/12/13 16:15:07;;;;;;;1.47;1.33;;;;;;;21.09;40.70;97334.58;;;;-49
2019/12/13 16:18:07;;;;;;;3.31;1.32;;;;;;;21.13;40.69;97337.05;;;;-51
2019/12/13 16:21:07;;;;;;;3.11;1.41;;;;;;;21.11;40.67;97351.16;;;;-50
2019/12/13 16:24:07;;;;;;;1.80;1.30;;;;;;;21.10;40.70;97367.61;;;;-51
2019/12/13 16:27:07;;;;;;;3.20;1.30;;;;;;;21.09;40.77;97370.66;;;;-51
2019/12/13 16:30:07;;;;;;;1.78;1.40;;;;;;;21.10;40.76;97382.05;;;;-50
2019/12/13 16:33:07;;;;;;;1.53;1.15;;;;;;;21.10;40.74;97387.83;;;;-51
2019/12/13 16:36:07;;;;;;;1.96;1.15;;;;;;;21.09;40.76;97393.38;;;;-50
2019/12/13 16:39:07;;;;;;;1.43;1.20;;;;;;;21.09;40.79;97400.69;;;;-50
2019/12/13 16:42:07;;;;;;;1.41;1.18;;;;;;;21.09;40.82;97404.13;;;;-51
2019/12/13 16:45:07;;;;;;;1.68;1.29;;;;;;;21.10;40.81;97409.64;;;;-50
2019/12/13 16:48:12;;;;;;;1.85;1.17;;;;;;;21.10;40.82;97413.83;;;;-51
2019/12/13 16:51:11;;;;;;;2.35;1.27;;;;;;;21.10;40.83;97421.14;;;;-50
2019/12/13 16:54:07;;;;;;;1.80;1.22;;;;;;;21.10;40.83;97427.59;;;;-50
2019/12/13 16:57:07;;;;;;;1.28;1.18;;;;;;;21.09;40.84;97436.26;;;;-50